This is the latest recevied weather packets stored in our database for station/object KF0GNS-15. If no packets are shown the sender has not sent any weather packets the latest 1 day(s).
| Time | Temp. | Humidity | Pressure | Rain* | Wind** | Luminosity | Snow |
|---|---|---|---|---|---|---|---|
| 1778001855 | 8.89° C | 90% | 1013.8 hPa | 0 mm | 0 m/s | - | - |
| 1778000907 | 8.89° C | 90% | 1014 hPa | 0 mm | 0 m/s | - | - |
| 1777999957 | 8.89° C | 90% | 1014.2 hPa | 0.25 mm | 0 m/s | - | - |
| 1777999009 | 8.89° C | 91% | 1014.1 hPa | 0.25 mm | 0.45 m/s, 26° | - | - |
| 1777998059 | 8.89° C | 91% | 1014.1 hPa | 0.51 mm | 0 m/s | - | - |
| 1777996163 | 8.89° C | 91% | 1014.2 hPa | 0.76 mm | 0 m/s | - | - |
| 1777995212 | 8.89° C | 92% | 1014.1 hPa | 0.76 mm | 0 m/s | - | - |
| 1777994264 | 8.89° C | 93% | 1013.7 hPa | 1.02 mm | 0 m/s | - | - |
| 1777993314 | 8.89° C | 93% | 1013.8 hPa | 1.02 mm | 0 m/s | - | - |
| 1777992367 | 8.89° C | 93% | 1013.4 hPa | 1.52 mm | 0 m/s | - | - |
| 1777991417 | 8.33° C | 92% | 1013.2 hPa | 2.29 mm | 0 m/s | - | - |
| 1777990472 | 8.89° C | 92% | 1013.8 hPa | 2.29 mm | 0 m/s | - | - |
| 1777988571 | 8.89° C | 91% | 1013.2 hPa | 1.52 mm | 0 m/s | - | - |
| 1777987620 | 8.33° C | 90% | 1013.2 hPa | 1.27 mm | 0 m/s | - | - |
| 1777986673 | 8.89° C | 88% | 1012.6 hPa | 1.27 mm | 0.45 m/s, 343° | - | - |
| 1777985724 | 8.89° C | 86% | 1012.7 hPa | 1.27 mm | 0.45 m/s, 343° | - | - |
| 1777984774 | 9.44° C | 85% | 1011.7 hPa | 1.27 mm | 0 m/s | - | - |
| 1777983824 | 10° C | 79% | 1011.1 hPa | 0.25 mm | 0 m/s | - | - |
| 1777982876 | 10.56° C | 70% | 1010.7 hPa | 0.25 mm | 0.89 m/s, 55° | - | - |
| 1777981926 | 11.67° C | 57% | 1010.3 hPa | 0 mm | 0.45 m/s, 16° | - | - |
| 1777980029 | 11.67° C | 55% | 1010.5 hPa | 0 mm | 0.45 m/s, 44° | - | - |
| 1777979083 | 11.67° C | 54% | 1010.5 hPa | 0 mm | 0.45 m/s, 101° | - | - |
| 1777978130 | 11.67° C | 53% | 1010 hPa | 0 mm | 0.45 m/s, 86° | - | - |
| 1777977182 | 12.22° C | 52% | 1009.9 hPa | 0 mm | 0.45 m/s, 17° | - | - |
| 1777976234 | 12.22° C | 53% | 1010.2 hPa | 0 mm | 0 m/s | - | - |
* Rain latest hour (hover to see other rain measurements)
** Current wind speed in m/s (hover to see current wind gust speed)